createdAt,value
2022-12-08T00:02:58.009Z,21.23
2022-12-08T00:05:43.659Z,22.02
2022-12-08T00:08:28.895Z,24.75
2022-12-08T00:10:56.647Z,25.00
2022-12-08T00:13:24.581Z,25.52
2022-12-08T00:15:52.311Z,27.88
2022-12-08T00:18:21.431Z,28.65
2022-12-08T00:20:55.746Z,30.00
2022-12-08T00:23:23.600Z,32.65
2022-12-08T00:25:51.360Z,32.28
2022-12-08T00:28:19.560Z,32.92
2022-12-08T00:30:47.316Z,35.13
2022-12-08T00:33:15.089Z,36.08
2022-12-08T00:35:44.126Z,36.40
2022-12-08T00:38:12.718Z,39.22
2022-12-08T00:40:44.580Z,40.55
2022-12-08T00:43:12.391Z,41.17
2022-12-08T00:45:40.529Z,41.42
2022-12-08T00:48:08.479Z,40.67
2022-12-08T00:50:36.304Z,39.53
2022-12-08T00:53:05.386Z,41.97
2022-12-08T00:55:33.154Z,40.08
2022-12-08T00:58:00.917Z,38.60
2022-12-08T01:00:28.675Z,40.15
2022-12-08T01:02:56.431Z,37.83
2022-12-08T01:05:24.221Z,38.97
2022-12-08T01:07:52.076Z,39.85
2022-12-08T01:10:21.201Z,38.97
2022-12-08T01:12:48.920Z,39.35
2022-12-08T01:15:16.703Z,41.22
2022-12-08T01:17:44.421Z,39.88
2022-12-08T01:22:39.700Z,41.30
2022-12-08T01:27:36.420Z,41.25
2022-12-08T01:30:04.798Z,43.30
2022-12-08T01:32:32.755Z,44.75
2022-12-08T01:35:01.712Z,45.95
2022-12-08T01:37:30.687Z,42.33
2022-12-08T01:39:58.459Z,41.63
2022-12-08T01:42:26.605Z,41.45
2022-12-08T01:44:57.576Z,40.78
2022-12-08T01:47:27.118Z,43.15
2022-12-08T01:49:54.777Z,45.05
2022-12-08T01:54:54.037Z,42.47
2022-12-08T01:57:23.071Z,42.60
2022-12-08T01:59:54.314Z,42.67
2022-12-08T02:02:24.228Z,41.85
2022-12-08T02:04:52.020Z,41.33
2022-12-08T02:07:19.821Z,43.78
2022-12-08T02:09:47.653Z,44.45
2022-12-08T02:12:15.793Z,42.30
2022-12-08T02:14:43.652Z,41.88
2022-12-08T02:17:19.112Z,42.38
2022-12-08T02:20:05.505Z,42.20
2022-12-08T02:22:39.343Z,42.00
2022-12-08T02:25:09.867Z,45.13
2022-12-08T02:27:42.418Z,38.53
2022-12-08T02:30:19.672Z,40.00
2022-12-08T02:33:11.443Z,40.65
2022-12-08T02:35:46.269Z,38.60
2022-12-08T02:38:18.369Z,39.75
2022-12-08T02:40:49.775Z,37.30
2022-12-08T02:43:22.394Z,39.13
2022-12-08T02:45:51.513Z,41.15
2022-12-08T02:48:21.959Z,41.17
2022-12-08T02:50:51.028Z,41.63
2022-12-08T02:53:18.729Z,40.33
2022-12-08T02:58:23.928Z,38.60
2022-12-08T03:00:59.743Z,36.35
2022-12-08T03:03:33.054Z,38.72
2022-12-08T03:06:07.099Z,38.10
2022-12-08T03:08:36.993Z,38.20
2022-12-08T03:11:07.795Z,37.45
2022-12-08T03:13:39.614Z,36.13
2022-12-08T03:16:09.336Z,37.40
2022-12-08T03:18:39.252Z,35.30
2022-12-08T03:21:08.553Z,38.70
2022-12-08T03:23:37.403Z,36.13
2022-12-08T03:26:08.240Z,37.60
2022-12-08T03:28:36.129Z,35.58
2022-12-08T03:31:06.107Z,42.72
2022-12-08T03:33:34.978Z,39.53
2022-12-08T03:36:03.559Z,37.88
2022-12-08T03:38:39.916Z,35.85
2022-12-08T03:41:27.311Z,36.63
2022-12-08T03:43:55.725Z,36.08
2022-12-08T03:48:51.601Z,39.30
2022-12-08T03:51:19.972Z,36.97
2022-12-08T03:53:49.098Z,38.70
2022-12-08T03:56:20.898Z,38.58
2022-12-08T03:58:48.643Z,37.88
2022-12-08T04:03:44.072Z,37.83
2022-12-08T04:06:11.965Z,33.88
2022-12-08T04:08:40.086Z,34.08
2022-12-08T04:11:09.506Z,33.55
2022-12-08T04:13:38.055Z,31.50
2022-12-08T04:16:06.112Z,31.77
2022-12-08T04:18:33.972Z,32.30
2022-12-08T04:21:01.791Z,30.13
2022-12-08T04:23:29.503Z,35.05
2022-12-08T04:28:26.472Z,40.55
2022-12-08T04:30:54.350Z,43.28
2022-12-08T04:33:22.207Z,41.08
2022-12-08T04:35:49.963Z,46.92
2022-12-08T04:38:17.850Z,41.20
2022-12-08T04:40:45.860Z,40.88
2022-12-08T04:43:13.566Z,37.88
2022-12-08T04:48:12.632Z,42.03
2022-12-08T04:50:41.148Z,42.72
2022-12-08T04:53:08.939Z,39.95
2022-12-08T04:55:39.146Z,42.78
2022-12-08T04:58:06.931Z,42.55
2022-12-08T05:03:02.247Z,41.75
2022-12-08T05:05:31.386Z,39.50
2022-12-08T05:07:59.195Z,39.35
2022-12-08T05:10:26.952Z,40.67
2022-12-08T05:12:54.739Z,40.45
2022-12-08T05:15:22.521Z,41.08
2022-12-08T05:17:50.414Z,39.10
2022-12-08T05:20:18.164Z,40.20
2022-12-08T05:25:14.984Z,41.65
2022-12-08T05:27:43.295Z,37.85
2022-12-08T05:30:11.139Z,35.67
2022-12-08T05:32:39.109Z,34.10
2022-12-08T05:35:07.363Z,33.80
2022-12-08T05:37:35.097Z,34.75
2022-12-08T05:40:03.219Z,40.75
2022-12-08T05:42:32.679Z,47.95
2022-12-08T05:45:00.382Z,65.80
2022-12-08T05:49:59.475Z,36.38
2022-12-08T05:54:54.837Z,36.58
2022-12-08T05:57:22.629Z,34.35
2022-12-08T05:59:52.082Z,33.33
2022-12-08T06:02:19.909Z,33.97
2022-12-08T06:04:47.666Z,33.80
2022-12-08T06:09:44.119Z,35.55
2022-12-08T06:12:11.899Z,37.63
2022-12-08T06:14:39.929Z,44.33
2022-12-08T06:17:09.121Z,40.70
2022-12-08T06:19:37.103Z,36.20
2022-12-08T06:22:04.827Z,39.20
2022-12-08T06:27:00.231Z,68.85
2022-12-08T06:29:28.026Z,40.38
2022-12-08T06:31:55.794Z,36.22
2022-12-08T06:34:24.990Z,36.42
2022-12-08T06:36:52.807Z,33.95
2022-12-08T06:39:20.529Z,33.40
2022-12-08T06:42:06.283Z,32.85
2022-12-08T06:44:34.512Z,34.30
2022-12-08T06:47:02.250Z,32.85
2022-12-08T06:51:59.167Z,33.20
2022-12-08T06:54:27.941Z,32.10
2022-12-08T06:56:55.811Z,32.70
2022-12-08T06:59:26.090Z,32.97
2022-12-08T07:01:54.124Z,32.03
2022-12-08T07:04:21.896Z,32.85
2022-12-08T07:06:49.672Z,31.27
2022-12-08T07:11:46.531Z,30.63
2022-12-08T07:14:14.621Z,31.60
2022-12-08T07:16:42.451Z,33.42
2022-12-08T07:19:10.222Z,31.80
2022-12-08T07:24:05.819Z,33.40
2022-12-08T07:26:33.825Z,35.10
2022-12-08T07:29:03.005Z,34.00
2022-12-08T07:31:31.041Z,35.22
2022-12-08T07:33:58.809Z,33.65
2022-12-08T07:36:26.801Z,30.70
2022-12-08T07:38:54.840Z,33.03
2022-12-08T07:41:24.130Z,32.15
2022-12-08T07:43:52.141Z,33.85
2022-12-08T07:46:22.681Z,34.33
2022-12-08T07:48:50.571Z,33.85
2022-12-08T07:53:53.447Z,35.83
2022-12-08T07:56:22.190Z,35.90
2022-12-08T07:58:49.929Z,38.47
2022-12-08T08:03:46.657Z,38.72
2022-12-08T08:06:14.520Z,42.15
2022-12-08T08:08:42.187Z,40.17
2022-12-08T08:13:47.105Z,38.13
2022-12-08T08:16:14.900Z,38.63
2022-12-08T08:18:43.577Z,34.72
2022-12-08T08:24:00.616Z,35.28
2022-12-08T08:26:28.487Z,35.15
2022-12-08T08:28:56.313Z,32.95
2022-12-08T08:33:57.890Z,33.63
2022-12-08T08:36:27.014Z,33.15
2022-12-08T08:38:54.832Z,41.25
2022-12-08T08:41:22.580Z,32.33
2022-12-08T08:46:17.923Z,33.00
2022-12-08T08:48:45.845Z,30.48
2022-12-08T08:53:43.042Z,28.98
2022-12-08T08:56:11.478Z,29.98
2022-12-08T08:58:39.307Z,30.42
2022-12-08T09:01:07.250Z,31.20
2022-12-08T09:03:36.223Z,32.15
2022-12-08T09:08:31.623Z,31.00
2022-12-08T09:11:00.790Z,36.53
2022-12-08T09:13:28.595Z,38.42
2022-12-08T09:15:56.609Z,33.85
2022-12-08T09:18:24.530Z,32.22
2022-12-08T09:20:52.483Z,35.83
2022-12-08T09:23:20.228Z,32.95
2022-12-08T09:25:48.227Z,38.25
2022-12-08T09:28:17.470Z,38.83
2022-12-08T09:30:45.628Z,34.55
2022-12-08T09:33:13.361Z,34.85
2022-12-08T09:38:08.694Z,33.78
2022-12-08T09:40:41.681Z,34.92
2022-12-08T09:43:13.380Z,35.22
2022-12-08T09:45:43.040Z,34.10
2022-12-08T09:48:13.037Z,34.65
2022-12-08T09:50:45.336Z,36.63
2022-12-08T09:53:16.955Z,38.38
2022-12-08T09:55:47.542Z,35.58
2022-12-08T09:58:20.747Z,59.25
2022-12-08T10:00:50.054Z,50.13
2022-12-08T10:03:18.823Z,35.70
2022-12-08T10:05:50.897Z,37.58
2022-12-08T10:08:21.120Z,38.25
2022-12-08T10:10:50.951Z,36.90
2022-12-08T10:13:23.028Z,35.15
2022-12-08T10:15:58.597Z,30.50
2022-12-08T10:18:28.119Z,33.42
2022-12-08T10:20:58.965Z,32.67
2022-12-08T10:23:31.140Z,28.88
2022-12-08T10:26:01.539Z,27.08
2022-12-08T10:28:30.628Z,30.63
2022-12-08T10:30:59.816Z,33.25
2022-12-08T10:33:29.319Z,30.92
2022-12-08T10:35:58.493Z,32.70
2022-12-08T10:38:28.175Z,33.05
2022-12-08T10:41:00.960Z,29.58
2022-12-08T10:43:28.828Z,30.55
2022-12-08T10:45:56.596Z,33.10
2022-12-08T10:48:28.610Z,32.03
2022-12-08T10:50:57.308Z,28.63
2022-12-08T10:53:26.101Z,46.50
2022-12-08T10:55:54.756Z,31.02
2022-12-08T10:58:30.381Z,23.50
2022-12-08T11:00:59.894Z,26.27
2022-12-08T11:03:30.298Z,27.10
2022-12-08T11:06:01.675Z,27.85
2022-12-08T11:08:33.514Z,28.25
2022-12-08T11:11:01.402Z,28.23
2022-12-08T11:13:30.049Z,27.13
2022-12-08T11:15:58.178Z,24.20
2022-12-08T11:18:28.867Z,23.92
2022-12-08T11:21:08.550Z,22.60
2022-12-08T11:23:37.417Z,23.20
2022-12-08T11:26:12.654Z,22.02
2022-12-08T11:28:40.747Z,24.17
2022-12-08T11:31:11.599Z,22.63
2022-12-08T11:33:39.645Z,22.02
2022-12-08T11:36:13.122Z,20.65
2022-12-08T11:38:42.307Z,22.15
2022-12-08T11:41:16.041Z,21.08
2022-12-08T11:43:47.849Z,20.55
2022-12-08T11:46:18.243Z,19.92
2022-12-08T11:48:49.127Z,26.80
2022-12-08T11:51:20.041Z,30.20
2022-12-08T11:53:54.085Z,22.65
2022-12-08T11:56:24.740Z,22.85
2022-12-08T11:58:54.347Z,22.90
2022-12-08T12:01:22.909Z,21.92
2022-12-08T12:03:55.066Z,22.85
2022-12-08T12:07:01.537Z,23.15
2022-12-08T12:09:23.644Z,22.33
2022-12-08T12:12:17.137Z,22.45
2022-12-08T12:14:53.790Z,22.67
2022-12-08T12:17:29.634Z,22.83
2022-12-08T12:20:00.494Z,21.77
2022-12-08T12:22:32.813Z,21.63
2022-12-08T12:25:00.634Z,30.98
2022-12-08T12:27:30.251Z,44.63
2022-12-08T12:30:00.045Z,20.70
2022-12-08T12:32:28.760Z,21.55
2022-12-08T12:34:58.366Z,20.45
2022-12-08T12:37:27.398Z,20.52
2022-12-08T12:39:59.337Z,21.17
2022-12-08T12:42:38.259Z,20.30
2022-12-08T12:45:13.709Z,20.63
2022-12-08T12:47:48.640Z,21.50
2022-12-08T12:50:35.093Z,23.38
2022-12-08T12:53:07.918Z,26.17
2022-12-08T12:55:53.453Z,24.10
2022-12-08T12:58:24.666Z,22.33
2022-12-08T13:01:12.649Z,22.50
2022-12-08T13:03:43.704Z,23.90
2022-12-08T13:06:14.766Z,26.27
2022-12-08T13:08:51.073Z,23.45
2022-12-08T13:11:19.016Z,20.33
2022-12-08T13:13:56.977Z,23.17
2022-12-08T13:16:26.554Z,22.90
2022-12-08T13:18:58.040Z,21.38
2022-12-08T13:21:26.617Z,20.63
2022-12-08T13:24:14.603Z,20.42
2022-12-08T13:26:44.867Z,19.92
2022-12-08T13:29:16.945Z,19.75
2022-12-08T13:31:50.506Z,18.35
2022-12-08T13:34:22.950Z,18.42
2022-12-08T13:36:53.679Z,20.08
2022-12-08T13:39:22.869Z,21.10
2022-12-08T13:41:53.296Z,20.30
2022-12-08T13:45:18.530Z,20.67
2022-12-08T13:47:33.235Z,21.83
2022-12-08T13:54:16.448Z,20.88
2022-12-08T13:58:33.719Z,19.05
2022-12-08T14:01:04.082Z,19.98
2022-12-08T14:03:32.138Z,21.05
2022-12-08T14:06:12.332Z,20.15
2022-12-08T14:09:05.078Z,21.05
2022-12-08T14:11:35.735Z,21.50
2022-12-08T14:14:04.415Z,19.05
2022-12-08T14:16:37.575Z,18.58
2022-12-08T14:19:06.236Z,21.05
2022-12-08T14:21:36.319Z,19.30
2022-12-08T14:24:04.317Z,20.23
2022-12-08T14:26:34.827Z,19.30
2022-12-08T14:29:03.351Z,19.45
2022-12-08T14:31:31.204Z,21.33
2022-12-08T14:33:59.295Z,22.63
2022-12-08T14:36:28.930Z,22.25
2022-12-08T14:38:58.190Z,21.23
2022-12-08T14:41:27.131Z,21.25
2022-12-08T14:44:01.854Z,21.23
2022-12-08T14:46:30.017Z,20.77
2022-12-08T14:48:58.848Z,20.15
2022-12-08T14:51:29.284Z,22.95
2022-12-08T14:53:59.718Z,23.13
2022-12-08T14:56:29.561Z,21.98
2022-12-08T14:59:05.834Z,22.30
2022-12-08T15:01:34.425Z,23.65
2022-12-08T15:04:03.457Z,24.35
2022-12-08T15:06:31.238Z,23.17
2022-12-08T15:09:00.917Z,22.88
2022-12-08T15:11:32.753Z,20.67
2022-12-08T15:14:00.994Z,21.00
2022-12-08T15:16:30.445Z,22.45
2022-12-08T15:19:02.744Z,23.48
2022-12-08T15:21:32.556Z,24.42
2022-12-08T15:24:01.720Z,25.55
2022-12-08T15:26:29.635Z,24.55
2022-12-08T15:28:57.393Z,51.20
2022-12-08T15:33:53.150Z,30.33
2022-12-08T15:36:20.916Z,24.92
2022-12-08T15:41:17.533Z,24.58
2022-12-08T15:43:45.361Z,23.90
2022-12-08T15:46:13.260Z,23.25
2022-12-08T15:48:41.155Z,22.95
2022-12-08T15:51:08.962Z,24.23
2022-12-08T15:53:36.655Z,25.20
2022-12-08T15:58:55.253Z,24.38
2022-12-08T16:01:24.311Z,24.55
2022-12-08T16:09:30.742Z,25.70
2022-12-08T16:12:15.995Z,26.55
2022-12-08T16:20:00.791Z,25.10
2022-12-08T16:22:54.620Z,25.95
2022-12-08T16:25:19.179Z,24.73
2022-12-08T16:28:23.301Z,27.02
2022-12-08T16:30:37.967Z,28.15
2022-12-08T16:33:06.023Z,24.85
2022-12-08T16:35:33.932Z,26.77
2022-12-08T16:38:01.858Z,25.70
2022-12-08T16:40:29.848Z,23.77
2022-12-08T16:42:57.226Z,24.23
2022-12-08T16:45:26.084Z,46.78
2022-12-08T16:47:56.041Z,44.35
2022-12-08T16:50:25.235Z,22.42
2022-12-08T16:52:57.715Z,22.35
2022-12-08T16:55:25.527Z,20.42
2022-12-08T16:57:53.615Z,23.25
2022-12-08T17:00:22.943Z,22.13
2022-12-08T17:02:51.224Z,22.35
2022-12-08T17:05:21.439Z,21.33
2022-12-08T17:07:50.142Z,20.98
2022-12-08T17:10:18.602Z,20.85
2022-12-08T17:12:46.745Z,22.90
2022-12-08T17:15:16.070Z,21.30
2022-12-08T17:17:43.822Z,21.45
2022-12-08T17:22:40.629Z,21.33
2022-12-08T17:25:11.369Z,23.65
2022-12-08T17:27:39.765Z,22.85
2022-12-08T17:30:08.841Z,21.75
2022-12-08T17:32:38.281Z,21.17
2022-12-08T17:35:06.704Z,19.42
2022-12-08T17:37:34.813Z,19.58
2022-12-08T17:40:04.483Z,20.33
2022-12-08T17:42:32.549Z,20.98
2022-12-08T17:47:27.865Z,22.65
2022-12-08T17:49:56.155Z,21.00
2022-12-08T17:52:23.981Z,19.75
2022-12-08T17:54:51.763Z,20.70
2022-12-08T17:57:21.104Z,20.30
2022-12-08T17:59:48.805Z,18.80
2022-12-08T18:04:44.222Z,17.75
2022-12-08T18:07:12.003Z,19.13
2022-12-08T18:09:40.248Z,18.13
2022-12-08T18:12:08.269Z,19.10
2022-12-08T18:14:37.515Z,19.17
2022-12-08T18:17:05.294Z,20.30
2022-12-08T18:19:33.199Z,20.67
2022-12-08T18:22:01.006Z,19.17
2022-12-08T18:26:57.771Z,18.48
2022-12-08T18:29:25.687Z,18.50
2022-12-08T18:31:55.059Z,18.25
2022-12-08T18:34:22.838Z,18.05
2022-12-08T18:39:22.030Z,17.85
2022-12-08T18:41:49.784Z,18.67
2022-12-08T18:46:45.238Z,16.60
2022-12-08T18:49:15.854Z,21.17
2022-12-08T18:51:43.944Z,24.35
2022-12-08T18:54:12.358Z,25.25
2022-12-08T18:56:40.417Z,21.33
2022-12-08T18:59:09.162Z,19.50
2022-12-08T19:01:38.136Z,20.08
2022-12-08T19:09:24.520Z,20.92
2022-12-08T19:11:52.303Z,20.40
2022-12-08T19:14:25.758Z,20.13
2022-12-08T19:16:55.534Z,21.15
2022-12-08T19:19:23.297Z,20.15
2022-12-08T19:21:51.231Z,20.00
2022-12-08T19:24:19.160Z,19.48
2022-12-08T19:26:48.349Z,19.73
2022-12-08T19:29:16.171Z,21.50
2022-12-08T19:31:44.109Z,19.75
2022-12-08T19:34:13.087Z,20.83
2022-12-08T19:36:42.786Z,38.90
2022-12-08T19:39:30.060Z,44.90
2022-12-08T19:42:16.573Z,23.85
2022-12-08T19:44:56.244Z,23.10
2022-12-08T19:47:25.014Z,21.95
2022-12-08T19:49:53.938Z,22.45
2022-12-08T19:52:22.289Z,23.20
2022-12-08T19:54:49.987Z,23.80
2022-12-08T19:59:50.413Z,24.75
2022-12-08T20:02:21.051Z,24.85
2022-12-08T20:04:48.901Z,24.50
2022-12-08T20:09:44.211Z,25.13
2022-12-08T20:14:45.498Z,24.98
2022-12-08T20:17:15.131Z,24.23
2022-12-08T20:19:42.882Z,24.38
2022-12-08T20:22:10.711Z,25.15
2022-12-08T20:24:38.623Z,27.23
2022-12-08T20:27:06.370Z,25.73
2022-12-08T20:29:34.432Z,26.52
2022-12-08T20:32:02.380Z,26.15
2022-12-08T20:34:32.725Z,26.08
2022-12-08T20:37:00.624Z,24.77
2022-12-08T20:39:28.330Z,26.92
2022-12-08T20:44:23.857Z,26.52
2022-12-08T20:46:51.751Z,25.98
2022-12-08T20:49:19.573Z,25.17
2022-12-08T20:51:48.780Z,24.67
2022-12-08T20:54:16.629Z,25.50
2022-12-08T20:56:48.332Z,26.55
2022-12-08T20:59:17.438Z,24.90
2022-12-08T21:01:45.230Z,25.20
2022-12-08T21:04:13.670Z,25.15
2022-12-08T21:06:41.821Z,26.80
2022-12-08T21:09:10.996Z,25.25
2022-12-08T21:11:39.040Z,25.17
2022-12-08T21:14:06.911Z,23.75
2022-12-08T21:16:36.090Z,25.08
2022-12-08T21:19:04.116Z,25.73
2022-12-08T21:21:31.936Z,25.40
2022-12-08T21:23:59.713Z,24.67
2022-12-08T21:28:58.500Z,24.27
2022-12-08T21:31:27.140Z,25.73
2022-12-08T21:33:55.332Z,26.40
2022-12-08T21:36:23.302Z,27.10
2022-12-08T21:38:51.401Z,26.48
2022-12-08T21:41:41.300Z,27.63
2022-12-08T21:44:11.351Z,28.15
2022-12-08T21:46:39.289Z,28.20
2022-12-08T21:49:07.757Z,30.27
2022-12-08T21:51:37.913Z,29.42
2022-12-08T21:54:06.111Z,30.90
2022-12-08T21:56:33.947Z,30.35
2022-12-08T21:59:01.878Z,29.85
2022-12-08T22:01:31.164Z,29.73
2022-12-08T22:03:59.165Z,30.30
2022-12-08T22:06:27.558Z,27.85
2022-12-08T22:08:56.238Z,26.67
2022-12-08T22:11:24.254Z,26.48
2022-12-08T22:13:52.085Z,27.17
2022-12-08T22:16:19.897Z,28.55
2022-12-08T22:18:49.098Z,27.30
2022-12-08T22:21:17.967Z,27.85
2022-12-08T22:23:45.740Z,27.20
2022-12-08T22:26:14.002Z,27.35
2022-12-08T22:28:42.583Z,26.98
2022-12-08T22:31:11.325Z,28.05
2022-12-08T22:33:39.810Z,27.40
2022-12-08T22:36:14.281Z,27.10
2022-12-08T22:38:42.102Z,28.02
2022-12-08T22:41:09.845Z,27.40
2022-12-08T22:43:37.742Z,29.27
2022-12-08T22:46:11.851Z,29.98
2022-12-08T22:48:40.707Z,46.88
2022-12-08T22:51:10.229Z,39.10
2022-12-08T22:53:38.831Z,30.92
2022-12-08T22:56:06.941Z,33.33
2022-12-08T22:58:35.083Z,31.63
2022-12-08T23:01:03.102Z,33.67
2022-12-08T23:03:30.966Z,32.25
2022-12-08T23:05:58.910Z,32.35
2022-12-08T23:08:28.633Z,33.15
2022-12-08T23:10:56.538Z,33.90
2022-12-08T23:15:51.884Z,32.00
2022-12-08T23:18:20.037Z,33.60
2022-12-08T23:20:48.304Z,33.97
2022-12-08T23:23:16.273Z,32.33
2022-12-08T23:25:45.661Z,33.90
2022-12-08T23:28:13.468Z,34.35
2022-12-08T23:33:09.245Z,29.10
2022-12-08T23:35:37.461Z,30.05
2022-12-08T23:38:05.500Z,31.33
2022-12-08T23:40:33.360Z,31.60
2022-12-08T23:43:02.520Z,31.10
2022-12-08T23:45:30.416Z,30.92
2022-12-08T23:47:58.234Z,31.25
2022-12-08T23:50:26.203Z,30.90
2022-12-08T23:52:54.066Z,30.85
2022-12-08T23:55:21.807Z,31.25
